createdAt,value
2023-08-03T00:00:31.964Z,93389
2023-08-03T00:03:57.301Z,93396
2023-08-03T00:07:22.367Z,93396
2023-08-03T00:10:47.548Z,93402
2023-08-03T00:14:12.749Z,93401
2023-08-03T00:17:37.955Z,93402
2023-08-03T00:21:03.171Z,93411
2023-08-03T00:24:28.315Z,93412
2023-08-03T00:27:53.502Z,93407
2023-08-03T00:31:18.708Z,93418
2023-08-03T00:34:43.847Z,93406
2023-08-03T00:38:09.064Z,93406
2023-08-03T00:41:34.226Z,93405
2023-08-03T00:44:59.398Z,93405
2023-08-03T00:48:24.582Z,93403
2023-08-03T00:51:49.768Z,93402
2023-08-03T00:55:15.084Z,93403
2023-08-03T00:58:40.189Z,93401
2023-08-03T01:02:05.397Z,93396
2023-08-03T01:05:30.602Z,93400
2023-08-03T01:08:55.813Z,93403
2023-08-03T01:12:21.068Z,93397
2023-08-03T01:15:46.198Z,93404
2023-08-03T01:19:11.373Z,93404
2023-08-03T01:22:36.578Z,93395
2023-08-03T01:26:01.788Z,93407
2023-08-03T01:29:26.978Z,93392
2023-08-03T01:32:52.177Z,93390
2023-08-03T01:36:17.321Z,93393
2023-08-03T01:39:42.573Z,93402
2023-08-03T01:43:07.761Z,93392
2023-08-03T01:46:33.092Z,93395
2023-08-03T01:49:58.184Z,93390
2023-08-03T01:53:23.396Z,93390
2023-08-03T01:56:48.565Z,93385
2023-08-03T02:00:13.748Z,93384
2023-08-03T02:03:38.966Z,93389
2023-08-03T02:07:04.125Z,93389
2023-08-03T02:10:29.315Z,93393
2023-08-03T02:13:54.512Z,93385
2023-08-03T02:17:19.711Z,93387
2023-08-03T02:20:44.950Z,93389
2023-08-03T02:24:10.121Z,93404
2023-08-03T02:27:35.332Z,93403
2023-08-03T02:31:00.536Z,93389
2023-08-03T02:34:25.738Z,93398
2023-08-03T02:37:51.012Z,93391
2023-08-03T02:41:16.201Z,93391
2023-08-03T02:44:41.423Z,93387
2023-08-03T02:48:06.591Z,93390
2023-08-03T02:51:31.831Z,93393
2023-08-03T02:54:57.000Z,93394
2023-08-03T02:58:22.183Z,93377
2023-08-03T03:01:49.480Z,93382
2023-08-03T03:05:14.622Z,93379
2023-08-03T03:08:39.807Z,93380
2023-08-03T03:12:05.059Z,93375
2023-08-03T03:15:30.201Z,93374
2023-08-03T03:18:55.383Z,93386
2023-08-03T03:22:20.593Z,93391
2023-08-03T03:25:45.769Z,93386
2023-08-03T03:29:10.987Z,93391
2023-08-03T03:32:36.417Z,93388
2023-08-03T03:36:01.505Z,93388
2023-08-03T03:39:26.715Z,93384
2023-08-03T03:42:51.882Z,93385
2023-08-03T03:46:17.105Z,93385
2023-08-03T03:49:42.253Z,93392
2023-08-03T03:53:07.447Z,93376
2023-08-03T03:56:32.592Z,93375
2023-08-03T03:59:57.786Z,93375
2023-08-03T04:03:23.108Z,93368
2023-08-03T04:06:48.198Z,93360
2023-08-03T04:10:13.347Z,93370
2023-08-03T04:13:38.550Z,93362
2023-08-03T04:17:03.734Z,93367
2023-08-03T04:20:28.947Z,93368
2023-08-03T04:23:54.154Z,93365
2023-08-03T04:27:19.397Z,93357
2023-08-03T04:30:44.629Z,93363
2023-08-03T04:34:09.781Z,93360
2023-08-03T04:37:35.052Z,93367
2023-08-03T04:41:00.183Z,93370
2023-08-03T04:44:25.373Z,93375
2023-08-03T04:47:50.609Z,93388
2023-08-03T04:51:17.396Z,93380
2023-08-03T04:54:40.948Z,93389
2023-08-03T04:58:06.109Z,93394
2023-08-03T05:01:31.384Z,93390
2023-08-03T05:04:56.466Z,93393
2023-08-03T05:08:21.637Z,93409
2023-08-03T05:11:47.028Z,93406
2023-08-03T05:15:12.028Z,93408
2023-08-03T05:18:37.243Z,93408
2023-08-03T05:22:02.417Z,93408
2023-08-03T05:25:27.583Z,93407
2023-08-03T05:28:52.839Z,93418
2023-08-03T05:32:18.057Z,93428
2023-08-03T05:35:43.252Z,93416
2023-08-03T05:39:08.465Z,93411
2023-08-03T05:42:33.686Z,93424
2023-08-03T05:45:58.929Z,93428
2023-08-03T05:49:24.075Z,93437
2023-08-03T05:52:49.299Z,93451
2023-08-03T05:56:14.513Z,93448
2023-08-03T05:59:39.706Z,93474
2023-08-03T06:03:05.523Z,93469
2023-08-03T06:06:30.209Z,93481
2023-08-03T06:09:55.317Z,93470
2023-08-03T06:13:20.475Z,93468
2023-08-03T06:16:45.790Z,93474
2023-08-03T06:20:10.875Z,93459
2023-08-03T06:23:36.053Z,93468
2023-08-03T06:27:01.251Z,93457
2023-08-03T06:30:26.434Z,93472
2023-08-03T06:33:51.656Z,93479
2023-08-03T06:37:16.925Z,93482
2023-08-03T06:40:42.111Z,93487
2023-08-03T06:44:07.324Z,93488
2023-08-03T06:47:32.573Z,93493
2023-08-03T06:50:57.908Z,93501
2023-08-03T06:54:23.160Z,93503
2023-08-03T06:57:48.363Z,93520
2023-08-03T07:01:13.609Z,93525
2023-08-03T07:04:38.775Z,93533
2023-08-03T07:08:04.015Z,93531
2023-08-03T07:11:29.227Z,93546
2023-08-03T07:14:54.434Z,93546
2023-08-03T07:18:19.686Z,93546
2023-08-03T07:21:44.975Z,93553
2023-08-03T07:25:10.033Z,93561
2023-08-03T07:28:35.268Z,93559
2023-08-03T07:32:00.514Z,93573
2023-08-03T07:35:25.629Z,93573
2023-08-03T07:38:50.918Z,93571
2023-08-03T07:42:16.107Z,93583
2023-08-03T07:49:06.515Z,93585
2023-08-03T07:52:31.697Z,93594
2023-08-03T07:55:56.901Z,93599
2023-08-03T07:59:22.079Z,93599
2023-08-03T08:02:47.357Z,93610
2023-08-03T08:06:12.804Z,93606
2023-08-03T08:09:37.733Z,93606
2023-08-03T08:13:02.880Z,93611
2023-08-03T08:16:28.129Z,93621
2023-08-03T08:19:53.334Z,93616
2023-08-03T08:23:18.534Z,93624
2023-08-03T08:26:43.794Z,93646
2023-08-03T08:30:08.974Z,93631
2023-08-03T08:33:34.209Z,93641
2023-08-03T08:36:59.413Z,93639
2023-08-03T08:40:24.567Z,93637
2023-08-03T08:43:49.772Z,93634
2023-08-03T08:47:15.065Z,93632
2023-08-03T08:51:07.225Z,93632
2023-08-03T09:00:55.821Z,93639
2023-08-03T09:07:46.302Z,93654
2023-08-03T09:11:11.614Z,93649
2023-08-03T09:14:36.706Z,93651
2023-08-03T09:18:01.944Z,93656
2023-08-03T09:24:52.348Z,93655
2023-08-03T09:31:55.070Z,93667
2023-08-03T09:35:08.000Z,93666
2023-08-03T09:38:33.215Z,93688
2023-08-03T09:41:58.830Z,93686
2023-08-03T09:49:14.027Z,93685
2023-08-03T09:52:14.332Z,93699
2023-08-03T09:55:39.586Z,93707
2023-08-03T09:59:04.846Z,93713
2023-08-03T10:05:55.338Z,93714
2023-08-03T10:09:20.637Z,93713
2023-08-03T10:12:45.880Z,93712
2023-08-03T10:16:14.309Z,93708
2023-08-03T10:19:46.871Z,93692
2023-08-03T10:23:12.032Z,93695
2023-08-03T10:26:43.463Z,93716
2023-08-03T10:30:08.632Z,93699
2023-08-03T10:33:33.940Z,93706
2023-08-03T10:36:59.262Z,93715
2023-08-03T10:40:24.310Z,93723
2023-08-03T10:43:49.543Z,93723
2023-08-03T10:47:14.931Z,93734
2023-08-03T10:50:40.032Z,93751
2023-08-03T10:54:05.296Z,93756
2023-08-03T10:57:30.551Z,93759
2023-08-03T11:00:55.815Z,93778
2023-08-03T11:04:21.852Z,93776
2023-08-03T11:07:47.109Z,93777
2023-08-03T11:11:12.348Z,93778
2023-08-03T11:14:37.532Z,93780
2023-08-03T11:18:02.815Z,93771
2023-08-03T11:21:28.082Z,93778
2023-08-03T11:24:53.294Z,93775
2023-08-03T11:28:18.623Z,93778
2023-08-03T11:31:43.895Z,93777
2023-08-03T11:35:09.344Z,93781
2023-08-03T11:38:34.334Z,93779
2023-08-03T11:41:59.609Z,93788
2023-08-03T11:45:24.910Z,93785
2023-08-03T11:48:50.082Z,93788
2023-08-03T11:52:15.359Z,93794
2023-08-03T11:55:40.735Z,93794
2023-08-03T11:59:05.896Z,93793
2023-08-03T12:02:31.119Z,93785
2023-08-03T12:06:08.932Z,93790
2023-08-03T12:09:29.550Z,93785
2023-08-03T12:16:20.020Z,93805
2023-08-03T12:19:45.270Z,93800
2023-08-03T12:23:10.543Z,93804
2023-08-03T12:26:35.772Z,93803
2023-08-03T12:30:01.001Z,93792
2023-08-03T12:33:26.343Z,93807
2023-08-03T12:36:51.553Z,93807
2023-08-03T12:40:16.818Z,93809
2023-08-03T12:43:42.069Z,93812
2023-08-03T12:47:08.726Z,93813
2023-08-03T12:50:32.562Z,93819
2023-08-03T12:53:57.800Z,93818
2023-08-03T12:57:23.037Z,93835
2023-08-03T13:00:48.310Z,93834
2023-08-03T13:04:13.534Z,93827
2023-08-03T13:07:38.789Z,93842
2023-08-03T13:11:04.066Z,93848
2023-08-03T13:14:29.261Z,93844
2023-08-03T13:17:56.557Z,93849
2023-08-03T13:21:21.333Z,93859
2023-08-03T13:24:45.088Z,93864
2023-08-03T13:28:10.391Z,93867
2023-08-03T13:31:35.670Z,93874
2023-08-03T13:35:00.935Z,93879
2023-08-03T13:38:26.184Z,93874
2023-08-03T13:41:51.363Z,93868
2023-08-03T13:45:16.671Z,93869
2023-08-03T13:48:41.905Z,93871
2023-08-03T13:52:09.851Z,93861
2023-08-03T13:55:35.052Z,93863
2023-08-03T13:59:00.355Z,93880
2023-08-03T14:06:18.152Z,93883
2023-08-03T14:09:16.116Z,93898
2023-08-03T14:19:31.839Z,93907
2023-08-03T14:23:03.007Z,93911
2023-08-03T14:26:22.266Z,93920
2023-08-03T14:29:47.471Z,93922
2023-08-03T14:33:12.741Z,93926
2023-08-03T14:36:37.982Z,93913
2023-08-03T14:40:03.202Z,93921
2023-08-03T14:43:28.500Z,93922
2023-08-03T14:47:00.680Z,93934
2023-08-03T14:50:19.763Z,93922
2023-08-03T14:53:44.272Z,93917
2023-08-03T14:57:09.492Z,93923
2023-08-03T15:00:34.747Z,93926
2023-08-03T15:04:01.438Z,93932
2023-08-03T15:07:25.180Z,93937
2023-08-03T15:10:50.731Z,93939
2023-08-03T15:51:46.386Z,93960
2023-08-03T15:58:29.419Z,93952
2023-08-03T16:01:54.929Z,93941
2023-08-03T16:05:20.081Z,93942
2023-08-03T16:08:45.264Z,93950
2023-08-03T16:12:10.488Z,93946
2023-08-03T16:15:35.731Z,93937
2023-08-03T16:19:00.932Z,93940
2023-08-03T16:22:26.205Z,93942
2023-08-03T16:25:51.381Z,93948
2023-08-03T16:29:18.015Z,93958
2023-08-03T16:32:49.276Z,93964
2023-08-03T16:36:07.062Z,93970
2023-08-03T16:39:32.311Z,93971
2023-08-03T16:42:57.609Z,93980
2023-08-03T16:46:22.860Z,93978
2023-08-03T16:49:48.079Z,93969
2023-08-03T16:53:13.316Z,93970
2023-08-03T16:56:38.571Z,93972
2023-08-03T17:00:03.727Z,93981
2023-08-03T17:03:29.041Z,93986
2023-08-03T17:06:54.405Z,93984
2023-08-03T17:10:19.644Z,93982
2023-08-03T17:13:45.241Z,93988
2023-08-03T17:17:10.422Z,93989
2023-08-03T17:20:35.647Z,93992
2023-08-03T17:24:00.865Z,93990
2023-08-03T17:27:26.167Z,94005
2023-08-03T17:30:51.981Z,94004
2023-08-03T17:34:28.321Z,94017
2023-08-03T17:37:53.564Z,94013
2023-08-03T17:41:20.281Z,94015
2023-08-03T17:44:45.581Z,94010
2023-08-03T17:48:10.819Z,94020
2023-08-03T17:51:36.064Z,94024
2023-08-03T17:55:01.284Z,94020
2023-08-03T17:58:36.217Z,94022
2023-08-03T18:02:02.886Z,94020
2023-08-03T18:05:28.996Z,94017
2023-08-03T18:13:05.306Z,94030
2023-08-03T18:16:31.609Z,94039
2023-08-03T18:20:09.232Z,94039
2023-08-03T18:23:34.549Z,94038
2023-08-03T18:27:18.743Z,94042
2023-08-03T18:30:56.775Z,94043
2023-08-03T18:34:21.907Z,94040
2023-08-03T18:37:47.206Z,94048
2023-08-03T18:41:16.578Z,94057
2023-08-03T18:44:41.784Z,94050
2023-08-03T18:48:11.125Z,94066
2023-08-03T18:51:36.311Z,94069
2023-08-03T18:55:01.528Z,94070
2023-08-03T18:58:26.826Z,94074
2023-08-03T19:01:52.174Z,94081
2023-08-03T19:05:17.309Z,94074
2023-08-03T19:08:42.542Z,94070
2023-08-03T19:12:07.758Z,94076
2023-08-03T19:15:33.061Z,94081
2023-08-03T19:18:58.277Z,94078
2023-08-03T19:22:23.484Z,94092
2023-08-03T19:25:48.692Z,94088
2023-08-03T19:29:15.604Z,94099
2023-08-03T19:32:39.287Z,94108
2023-08-03T19:36:04.371Z,94116
2023-08-03T19:39:29.565Z,94129
2023-08-03T19:42:54.888Z,94127
2023-08-03T19:46:20.168Z,94126
2023-08-03T19:57:01.677Z,94120
2023-08-03T20:07:17.768Z,94130
2023-08-03T20:10:43.609Z,94136
2023-08-03T20:14:08.988Z,94140
2023-08-03T20:17:34.132Z,94138
2023-08-03T20:20:59.322Z,94140
2023-08-03T20:24:24.609Z,94144
2023-08-03T20:27:53.445Z,94151
2023-08-03T20:31:14.935Z,94159
2023-08-03T20:34:50.723Z,94173
2023-08-03T20:38:07.688Z,94173
2023-08-03T20:51:46.270Z,94179
2023-08-03T20:55:11.276Z,94177
2023-08-03T20:58:36.532Z,94177
2023-08-03T21:02:04.991Z,94175
2023-08-03T21:05:26.930Z,94175
2023-08-03T21:08:52.075Z,94178
2023-08-03T21:12:18.153Z,94174
2023-08-03T21:15:42.486Z,94182
2023-08-03T21:19:10.459Z,94185
2023-08-03T21:22:32.816Z,94185
2023-08-03T21:25:57.997Z,94179
2023-08-03T21:29:23.193Z,94186
2023-08-03T21:32:48.406Z,94188
2023-08-03T21:36:13.546Z,94187
2023-08-03T21:39:38.720Z,94186
2023-08-03T21:43:03.902Z,94186
2023-08-03T21:46:29.102Z,94186
2023-08-03T21:49:54.288Z,94178
2023-08-03T21:53:19.451Z,94191
2023-08-03T21:56:44.661Z,94200
2023-08-03T22:00:09.858Z,94196
2023-08-03T22:03:35.029Z,94194
2023-08-03T22:07:00.240Z,94200
2023-08-03T22:10:25.429Z,94205
2023-08-03T22:13:50.612Z,94218
2023-08-03T22:17:15.789Z,94224
2023-08-03T22:20:41.001Z,94235
2023-08-03T22:24:06.225Z,94244
2023-08-03T22:27:31.424Z,94251
2023-08-03T22:30:56.703Z,94247
2023-08-03T22:34:21.851Z,94244
2023-08-03T22:37:47.050Z,94236
2023-08-03T22:41:12.248Z,94239
2023-08-03T22:44:37.430Z,94223
2023-08-03T22:51:27.989Z,94203
2023-08-03T22:54:53.209Z,94205
2023-08-03T22:58:18.409Z,94219
2023-08-03T23:01:43.591Z,94239
2023-08-03T23:05:08.783Z,94265
2023-08-03T23:08:33.953Z,94275
2023-08-03T23:11:59.118Z,94280
2023-08-03T23:15:24.334Z,94293
2023-08-03T23:18:49.542Z,94307
2023-08-03T23:22:14.705Z,94316
2023-08-03T23:25:39.904Z,94326
2023-08-03T23:29:05.146Z,94320
2023-08-03T23:32:30.375Z,94315
2023-08-03T23:35:55.516Z,94316
2023-08-03T23:39:20.703Z,94313
2023-08-03T23:42:45.889Z,94306
2023-08-03T23:46:11.128Z,94320
2023-08-03T23:49:36.280Z,94350
2023-08-03T23:53:01.508Z,94356
2023-08-03T23:56:26.709Z,94344
2023-08-03T23:59:53.449Z,94338
